Time;durP1;ratioP1;P1;durP2;ratioP2;P2;SDS_P1;SDS_P2;PMS_P1;PMS_P2;Temp;Humidity;BMP_temperature;BMP_pressure;BME280_temperature;BME280_humidity;BME280_pressure;Samples;Min_cycle;Max_cycle;Signal;HPM_P1;HPM_P2
2024/01/13 00:01:31;;;;;;;1.40;1.40;;;;;;;1.24;100.00;101413.50;4937660;29;20457;-72
2024/01/13 00:03:56;;;;;;;1.30;1.30;;;;;;;1.27;100.00;101400.47;4934601;29;20059;-72
2024/01/13 00:06:22;;;;;;;1.50;1.50;;;;;;;1.29;100.00;101409.25;4945087;28;20038;-73
2024/01/13 00:08:47;;;;;;;1.50;1.50;;;;;;;1.33;100.00;101406.75;4956096;28;20018;-73
2024/01/13 00:11:12;;;;;;;1.45;1.45;;;;;;;1.34;100.00;101402.41;4974158;28;20364;-73
2024/01/13 00:13:38;;;;;;;1.60;1.60;;;;;;;1.35;100.00;101404.22;4943446;29;20039;-72
2024/01/13 00:16:03;;;;;;;1.50;1.50;;;;;;;1.37;100.00;101402.50;4953041;29;20034;-64
2024/01/13 00:18:29;;;;;;;1.40;1.40;;;;;;;1.31;100.00;101403.25;4952822;29;20034;-65
2024/01/13 00:20:54;;;;;;;1.30;1.30;;;;;;;1.25;100.00;101386.47;4957436;28;20069;-64
2024/01/13 00:23:20;;;;;;;1.42;1.42;;;;;;;1.35;100.00;101393.72;4939017;29;20090;-64
2024/01/13 00:25:46;;;;;;;1.50;1.50;;;;;;;1.38;100.00;101398.16;4952810;29;20083;-64
2024/01/13 00:28:12;;;;;;;1.50;1.50;;;;;;;1.32;100.00;101398.84;4918090;29;20040;-65
2024/01/13 00:30:37;;;;;;;1.50;1.50;;;;;;;1.32;100.00;101405.00;4900683;29;20043;-65
2024/01/13 00:33:03;;;;;;;1.50;1.50;;;;;;;1.34;100.00;101405.03;4937851;29;20035;-64
2024/01/13 00:35:28;;;;;;;1.50;1.50;;;;;;;1.34;100.00;101399.78;4916167;29;20527;-65
2024/01/13 00:37:53;;;;;;;1.40;1.40;;;;;;;1.34;100.00;101397.16;4940658;29;20483;-65
2024/01/13 00:40:19;;;;;;;1.60;1.60;;;;;;;1.33;100.00;101400.66;4952056;28;20022;-64
2024/01/13 00:42:44;;;;;;;1.40;1.40;;;;;;;1.34;100.00;101394.56;4948909;29;20069;-64
2024/01/13 00:45:10;;;;;;;1.40;1.40;;;;;;;1.34;100.00;101397.16;4952248;29;20086;-64
2024/01/13 00:47:36;;;;;;;1.55;1.55;;;;;;;1.34;100.00;101391.94;4951559;29;20043;-65
2024/01/13 00:50:01;;;;;;;1.50;1.50;;;;;;;1.30;100.00;101384.84;4949872;29;20102;-65
2024/01/13 00:52:26;;;;;;;1.50;1.50;;;;;;;1.30;100.00;101392.72;4933188;29;20028;-64
2024/01/13 00:54:52;;;;;;;1.50;1.50;;;;;;;1.31;100.00;101384.00;4950333;28;20102;-64
2024/01/13 00:57:18;;;;;;;1.52;1.52;;;;;;;1.32;100.00;101393.63;4937602;29;20059;-64
2024/01/13 00:59:43;;;;;;;1.33;1.33;;;;;;;1.30;100.00;101396.19;4944256;28;20543;-64
2024/01/13 01:02:09;;;;;;;1.50;1.50;;;;;;;1.34;100.00;101378.81;4946333;29;20577;-64
2024/01/13 01:04:34;;;;;;;1.40;1.40;;;;;;;1.31;100.00;101374.41;4949536;29;20027;-65
2024/01/13 01:07:00;;;;;;;1.50;1.50;;;;;;;1.38;100.00;101370.22;4933592;29;20067;-65
2024/01/13 01:09:25;;;;;;;1.50;1.50;;;;;;;0.86;100.00;101280.59;4919001;29;20700;-65
2024/01/13 01:11:51;;;;;;;1.40;1.40;;;;;;;1.30;100.00;101380.47;4932977;29;20666;-65
2024/01/13 01:14:16;;;;;;;1.50;1.50;;;;;;;1.11;100.00;101340.66;4917477;29;20039;-65
2024/01/13 01:16:41;;;;;;;1.60;1.60;;;;;;;1.26;100.00;101373.41;4932204;29;20039;-64
2024/01/13 01:19:07;;;;;;;1.40;1.40;;;;;;;1.25;100.00;101368.13;4914676;29;20076;-64
2024/01/13 01:21:32;;;;;;;1.40;1.40;;;;;;;1.23;100.00;101359.31;4948545;29;20122;-65
2024/01/13 01:23:58;;;;;;;1.50;1.50;;;;;;;1.22;100.00;101361.03;4951617;29;20167;-74
2024/01/13 01:26:23;;;;;;;1.50;1.50;;;;;;;1.19;100.00;101353.13;4940926;29;20142;-71
2024/01/13 01:28:48;;;;;;;1.55;1.55;;;;;;;1.17;100.00;101351.31;4935501;29;20109;-73
2024/01/13 01:31:14;;;;;;;1.38;1.38;;;;;;;1.21;100.00;101353.16;4941841;28;20023;-73
2024/01/13 01:33:39;;;;;;;1.50;1.50;;;;;;;1.19;100.00;101347.88;4951800;28;20027;-75
2024/01/13 01:36:05;;;;;;;1.50;1.50;;;;;;;0.99;100.00;101316.75;4952386;29;20023;-73
2024/01/13 01:38:30;;;;;;;1.52;1.52;;;;;;;1.17;100.00;101351.31;4943908;29;20035;-74
2024/01/13 01:40:56;;;;;;;1.60;1.60;;;;;;;1.12;100.00;101343.31;4933477;29;20036;-72
2024/01/13 01:43:22;;;;;;;1.50;1.50;;;;;;;1.14;100.00;101338.09;4942132;28;20018;-69
2024/01/13 01:45:51;;;;;;;1.60;1.60;;;;;;;1.15;100.00;101338.16;4951823;29;20031;-72
2024/01/13 01:48:18;;;;;;;1.50;1.50;;;;;;;1.10;100.00;101329.28;4952262;29;20035;-72
2024/01/13 01:50:44;;;;;;;1.60;1.60;;;;;;;1.23;100.00;101338.38;4940087;29;20031;-72
2024/01/13 01:53:11;;;;;;;1.50;1.50;;;;;;;1.12;100.00;101316.25;4932695;29;20043;-71
2024/01/13 01:55:37;;;;;;;1.50;1.50;;;;;;;1.01;100.00;101292.38;4933773;29;20027;-71
2024/01/13 01:58:04;;;;;;;1.50;1.50;;;;;;;1.20;100.00;101327.81;4946377;28;20055;-72
2024/01/13 02:00:36;;;;;;;1.50;1.50;;;;;;;1.21;100.00;101332.19;4951912;29;20038;-64
2024/01/13 02:03:02;;;;;;;1.50;1.50;;;;;;;1.17;100.00;101330.34;4968342;28;20388;-65
2024/01/13 02:05:28;;;;;;;1.50;1.50;;;;;;;1.17;100.00;101325.97;4964812;28;20491;-65
2024/01/13 02:07:54;;;;;;;1.35;1.35;;;;;;;1.17;100.00;101320.75;4950796;29;20486;-65
2024/01/13 02:10:20;;;;;;;1.50;1.50;;;;;;;1.08;100.00;101303.91;4950826;29;20102;-65
2024/01/13 02:12:46;;;;;;;1.50;1.50;;;;;;;1.16;100.00;101323.31;4950675;29;20031;-65
2024/01/13 02:15:11;;;;;;;1.60;1.60;;;;;;;1.14;100.00;101319.78;4952617;28;20476;-65
2024/01/13 02:17:37;;;;;;;1.60;1.60;;;;;;;1.12;100.00;101318.88;4950292;29;20042;-66
2024/01/13 02:20:07;;;;;;;1.60;1.60;;;;;;;1.15;100.00;101311.09;4931929;29;20027;-66
2024/01/13 02:22:33;;;;;;;1.65;1.65;;;;;;;0.68;100.00;101254.84;4949251;28;20019;-65
2024/01/13 02:25:02;;;;;;;1.70;1.70;;;;;;;0.97;100.00;101306.22;4958582;28;20517;-65
2024/01/13 02:27:28;;;;;;;1.60;1.60;;;;;;;0.97;100.00;101300.13;4968296;28;20038;-65
2024/01/13 02:29:53;;;;;;;1.38;1.38;;;;;;;0.97;100.00;101297.50;4968958;28;20642;-65
2024/01/13 02:32:18;;;;;;;1.50;1.50;;;;;;;0.96;100.00;101287.84;4987933;28;20478;-65
2024/01/13 02:34:44;;;;;;;1.50;1.50;;;;;;;1.00;100.00;101290.63;4981241;28;20512;-65
2024/01/13 02:37:09;;;;;;;1.52;1.52;;;;;;;0.96;100.00;101299.22;4954644;28;20408;-65
2024/01/13 02:39:35;;;;;;;1.60;1.60;;;;;;;0.92;100.00;101296.50;4988103;28;20026;-65
2024/01/13 02:42:00;;;;;;;1.60;1.60;;;;;;;0.82;100.00;101289.25;4987942;28;20029;-65
2024/01/13 02:44:25;;;;;;;1.50;1.50;;;;;;;0.85;100.00;101299.78;4953568;28;20084;-65
2024/01/13 02:46:51;;;;;;;1.50;1.50;;;;;;;0.86;100.00;101285.84;4931091;29;20035;-65
2024/01/13 02:49:17;;;;;;;1.50;1.50;;;;;;;0.82;100.00;101273.53;4954135;28;20443;-65
2024/01/13 02:51:42;;;;;;;1.50;1.50;;;;;;;0.85;100.00;101269.25;4967860;28;20085;-65
2024/01/13 02:54:07;;;;;;;1.60;1.60;;;;;;;0.84;100.00;101277.09;4968040;28;20035;-65
2024/01/13 02:56:33;;;;;;;1.60;1.60;;;;;;;0.61;100.00;101231.09;4951327;28;20078;-65
2024/01/13 02:58:59;;;;;;;1.50;1.50;;;;;;;0.80;100.00;101280.44;4955210;28;20082;-65
2024/01/13 03:01:24;;;;;;;1.52;1.52;;;;;;;0.71;100.00;101275.00;4975502;28;20073;-65
2024/01/13 03:03:50;;;;;;;1.60;1.60;;;;;;;0.78;100.00;101271.66;4989324;28;20496;-65
2024/01/13 03:06:15;;;;;;;1.67;1.67;;;;;;;0.84;100.00;101274.47;4988855;28;20482;-65
2024/01/13 03:08:41;;;;;;;1.60;1.60;;;;;;;0.87;100.00;101277.16;4958597;28;20178;-65
2024/01/13 03:11:07;;;;;;;1.60;1.60;;;;;;;0.86;100.00;101263.16;4956548;28;20067;-65
2024/01/13 03:13:32;;;;;;;1.50;1.50;;;;;;;0.89;100.00;101265.00;4948783;29;20027;-65
2024/01/13 03:15:58;;;;;;;1.50;1.50;;;;;;;0.83;100.00;101264.81;4960063;28;20027;-65
2024/01/13 03:18:23;;;;;;;1.50;1.50;;;;;;;0.80;100.00;101264.75;4967638;28;20475;-66
2024/01/13 03:20:48;;;;;;;1.70;1.70;;;;;;;0.84;100.00;101250.91;4968121;28;20041;-65
2024/01/13 03:23:14;;;;;;;1.70;1.70;;;;;;;0.85;100.00;101256.16;4935943;29;20046;-65
2024/01/13 03:25:39;;;;;;;1.70;1.70;;;;;;;0.79;100.00;101253.38;4948697;29;20046;-65
2024/01/13 03:28:05;;;;;;;1.52;1.52;;;;;;;0.67;100.00;101252.19;4952301;28;20073;-64
2024/01/13 03:30:30;;;;;;;1.70;1.70;;;;;;;0.71;100.00;101260.16;4963750;28;20118;-65
2024/01/13 03:32:56;;;;;;;1.50;1.50;;;;;;;0.38;100.00;101206.03;4968931;28;20026;-65
2024/01/13 03:35:21;;;;;;;1.90;1.80;;;;;;;0.71;100.00;101244.44;4976533;28;20033;-65
2024/01/13 03:37:46;;;;;;;1.63;1.63;;;;;;;0.80;100.00;101243.78;4950129;28;20027;-65
2024/01/13 03:40:12;;;;;;;1.70;1.70;;;;;;;0.57;100.00;101200.44;4959001;28;20028;-65
2024/01/13 03:42:37;;;;;;;1.60;1.60;;;;;;;0.77;100.00;101235.88;4948457;29;20106;-65
2024/01/13 03:45:03;;;;;;;1.60;1.60;;;;;;;0.71;100.00;101239.19;4950507;28;20811;-65
2024/01/13 03:47:28;;;;;;;1.60;1.60;;;;;;;0.61;100.00;101237.19;4969291;28;20110;-64
2024/01/13 03:49:55;;;;;;;1.60;1.60;;;;;;;0.57;100.00;101224.88;4963892;28;20102;-65
2024/01/13 03:52:20;;;;;;;1.70;1.70;;;;;;;0.57;100.00;101219.66;4962806;28;20043;-65
2024/01/13 03:54:45;;;;;;;1.63;1.63;;;;;;;0.57;100.00;101218.75;4949306;29;20034;-65
2024/01/13 03:57:11;;;;;;;1.65;1.65;;;;;;;0.55;100.00;101209.97;4950130;28;20053;-65
2024/01/13 03:59:36;;;;;;;1.60;1.60;;;;;;;0.48;100.00;101208.06;4953609;28;20800;-65
2024/01/13 04:02:02;;;;;;;1.90;1.80;;;;;;;0.49;100.00;101221.19;4959471;28;20039;-65
2024/01/13 04:04:28;;;;;;;1.60;1.60;;;;;;;0.55;100.00;101221.31;4949645;29;20057;-65
2024/01/13 04:06:53;;;;;;;1.70;1.70;;;;;;;0.60;100.00;101216.19;4931794;29;20104;-66
2024/01/13 04:09:18;;;;;;;1.70;1.70;;;;;;;0.62;100.00;101222.38;4934010;29;20140;-65
2024/01/13 04:11:44;;;;;;;1.60;1.60;;;;;;;0.76;100.00;101220.97;4941177;28;20026;-65
2024/01/13 04:14:09;;;;;;;1.60;1.60;;;;;;;0.75;100.00;101221.84;4968489;28;20422;-65
2024/01/13 04:16:34;;;;;;;1.70;1.70;;;;;;;0.75;100.00;101221.84;4947630;28;20110;-66
2024/01/13 04:19:00;;;;;;;1.50;1.50;;;;;;;0.72;100.00;101229.63;4930310;29;20031;-65
2024/01/13 04:21:25;;;;;;;1.30;1.30;;;;;;;0.68;100.00;101219.91;4946959;28;22001;-66
2024/01/13 04:23:51;;;;;;;1.50;1.50;;;;;;;0.31;100.00;101152.66;4913078;29;20028;-66
2024/01/13 04:26:18;;;;;;;1.52;1.52;;;;;;;0.81;100.00;101235.97;4944819;29;20031;-75
2024/01/13 04:28:44;;;;;;;1.50;1.50;;;;;;;0.75;100.00;101234.94;4947672;28;20027;-74
2024/01/13 04:31:09;;;;;;;1.50;1.50;;;;;;;0.75;100.00;101229.69;4952750;29;20118;-74
2024/01/13 04:33:35;;;;;;;1.50;1.50;;;;;;;0.59;100.00;101214.44;4948768;29;20046;-73
2024/01/13 04:36:00;;;;;;;1.60;1.60;;;;;;;0.25;100.00;101177.78;4934936;29;20054;-73
2024/01/13 04:38:26;;;;;;;1.70;1.70;;;;;;;0.30;100.00;101192.72;4933634;29;20464;-73
2024/01/13 04:40:51;;;;;;;1.60;1.60;;;;;;;-0.04;100.00;101148.19;4951359;29;20035;-73
2024/01/13 04:43:16;;;;;;;1.60;1.60;;;;;;;0.47;100.00;101222.84;4938665;29;20062;-74
2024/01/13 04:45:42;;;;;;;1.60;1.60;;;;;;;0.45;100.00;101224.53;4966557;28;20034;-73
2024/01/13 04:48:07;;;;;;;1.50;1.50;;;;;;;0.15;100.00;101184.44;4951209;28;20046;-72
2024/01/13 04:50:33;;;;;;;1.58;1.58;;;;;;;0.44;100.00;101222.78;4949273;29;20037;-74
2024/01/13 04:52:59;;;;;;;2.00;1.90;;;;;;;0.27;100.00;101220.53;4952206;29;20030;-74
2024/01/13 04:55:24;;;;;;;1.50;1.50;;;;;;;0.33;100.00;101218.09;4952410;28;20046;-72
2024/01/13 04:57:49;;;;;;;1.67;1.67;;;;;;;0.36;100.00;101218.19;4935056;29;20055;-73
2024/01/13 05:00:16;;;;;;;1.63;1.63;;;;;;;0.38;100.00;101216.50;4933248;29;20050;-72
2024/01/13 05:02:41;;;;;;;1.50;1.50;;;;;;;0.38;100.00;101216.50;4954035;28;20040;-73
2024/01/13 05:05:07;;;;;;;1.60;1.60;;;;;;;0.41;100.00;101219.19;4964441;28;20024;-73
2024/01/13 05:07:36;;;;;;;1.90;1.80;;;;;;;0.44;100.00;101219.28;4951654;29;20074;-71
2024/01/13 05:10:02;;;;;;;1.60;1.60;;;;;;;0.41;100.00;101213.97;4952248;29;20035;-71
2024/01/13 05:12:28;;;;;;;1.90;1.80;;;;;;;0.34;100.00;101212.00;4945886;29;20032;-72
2024/01/13 05:14:53;;;;;;;1.92;1.83;;;;;;;0.37;100.00;101214.69;4950642;28;20034;-72
2024/01/13 05:17:19;;;;;;;1.70;1.70;;;;;;;0.40;100.00;101220.00;4928773;29;20042;-71
2024/01/13 05:19:44;;;;;;;1.60;1.60;;;;;;;0.43;100.00;101217.50;4951640;29;20127;-72
2024/01/13 05:22:09;;;;;;;1.70;1.70;;;;;;;0.54;100.00;101209.09;4934542;29;20106;-72
2024/01/13 05:24:35;;;;;;;1.50;1.50;;;;;;;0.37;100.00;101167.59;4949742;29;20046;-71
2024/01/13 05:27:01;;;;;;;1.70;1.70;;;;;;;0.65;100.00;101201.50;4939407;29;20062;-71
2024/01/13 05:29:26;;;;;;;1.60;1.60;;;;;;;0.64;100.00;101205.88;4931300;29;20035;-73
2024/01/13 05:31:51;;;;;;;1.90;1.80;;;;;;;0.51;100.00;101201.13;4933211;29;20074;-72
2024/01/13 05:34:17;;;;;;;1.60;1.60;;;;;;;0.54;100.00;101211.72;4937932;28;20487;-72
2024/01/13 05:36:42;;;;;;;1.58;1.58;;;;;;;0.61;100.00;101199.69;4959528;28;20027;-72
2024/01/13 05:39:08;;;;;;;1.70;1.70;;;;;;;0.25;100.00;101152.47;4946435;28;20031;-72
2024/01/13 05:41:33;;;;;;;1.70;1.70;;;;;;;0.48;100.00;101197.59;4950711;28;20588;-71
2024/01/13 05:43:58;;;;;;;1.80;1.70;;;;;;;0.45;100.00;101187.00;4950037;29;20031;-73
2024/01/13 05:46:24;;;;;;;1.70;1.70;;;;;;;0.50;100.00;101182.78;4949498;29;20038;-72
2024/01/13 05:48:50;;;;;;;1.60;1.60;;;;;;;0.55;100.00;101182.06;4933595;29;20024;-74
2024/01/13 05:51:16;;;;;;;1.52;1.52;;;;;;;0.41;100.00;101179.94;4931569;29;20130;-72
2024/01/13 05:53:42;;;;;;;1.65;1.65;;;;;;;0.21;100.00;101144.50;4944466;28;20459;-72
2024/01/13 05:56:07;;;;;;;1.67;1.67;;;;;;;0.47;100.00;101186.22;4955581;28;20070;-71
2024/01/13 05:58:32;;;;;;;1.60;1.60;;;;;;;0.41;100.00;101177.31;4969887;28;20141;-71
2024/01/13 06:00:58;;;;;;;1.60;1.60;;;;;;;0.55;100.00;101187.31;4966675;28;20113;-72
2024/01/13 06:03:24;;;;;;;1.73;1.73;;;;;;;0.36;100.00;101142.28;4971510;28;20611;-71
2024/01/13 06:05:49;;;;;;;1.60;1.60;;;;;;;0.72;100.00;101195.59;4969887;28;20125;-73
2024/01/13 06:08:15;;;;;;;1.60;1.60;;;;;;;0.51;100.00;101169.72;4967411;28;20562;-72
2024/01/13 06:10:40;;;;;;;1.60;1.60;;;;;;;0.64;100.00;101190.16;4952574;28;20443;-72
2024/01/13 06:13:05;;;;;;;1.52;1.52;;;;;;;0.53;100.00;101190.75;4966684;28;20109;-72
2024/01/13 06:15:31;;;;;;;1.80;1.80;;;;;;;0.08;100.00;101105.78;4969991;28;20122;-73
2024/01/13 06:17:57;;;;;;;1.50;1.50;;;;;;;0.58;100.00;101189.09;4969506;28;20721;-73
2024/01/13 06:20:23;;;;;;;1.60;1.60;;;;;;;0.13;100.00;101096.34;4966789;28;20030;-69
2024/01/13 06:22:48;;;;;;;1.70;1.70;;;;;;;0.55;100.00;101181.16;4969677;28;20098;-73
2024/01/13 06:25:13;;;;;;;1.67;1.67;;;;;;;0.66;100.00;101177.97;4966047;28;20041;-72
2024/01/13 06:27:39;;;;;;;1.70;1.70;;;;;;;0.71;100.00;101183.34;4968238;28;20034;-73
2024/01/13 06:30:05;;;;;;;1.90;1.80;;;;;;;0.67;100.00;101173.63;4948959;29;20381;-72
2024/01/13 06:32:31;;;;;;;1.50;1.50;;;;;;;0.63;100.00;101175.28;4931680;29;20237;-73
2024/01/13 06:34:57;;;;;;;1.63;1.63;;;;;;;0.54;100.00;101182.03;4959731;28;20031;-73
2024/01/13 06:37:22;;;;;;;1.60;1.60;;;;;;;0.43;100.00;101162.56;4968119;28;20023;-73
2024/01/13 06:39:47;;;;;;;1.50;1.50;;;;;;;0.46;100.00;101179.19;4967861;28;20065;-74
2024/01/13 06:42:13;;;;;;;1.52;1.52;;;;;;;0.44;100.00;101175.69;4969450;28;20031;-72
2024/01/13 06:44:38;;;;;;;1.58;1.58;;;;;;;0.49;100.00;101174.06;4953552;28;20494;-73
2024/01/13 06:47:04;;;;;;;1.58;1.58;;;;;;;0.50;100.00;101201.09;4980738;28;20161;-72
2024/01/13 06:49:30;;;;;;;1.60;1.60;;;;;;;0.44;100.00;101177.41;4968873;28;20395;-73
2024/01/13 06:51:55;;;;;;;1.50;1.50;;;;;;;0.36;100.00;101169.38;4955184;28;20474;-72
2024/01/13 06:54:20;;;;;;;1.60;1.60;;;;;;;0.41;100.00;101169.47;4988841;28;20075;-73
2024/01/13 06:56:46;;;;;;;1.60;1.60;;;;;;;0.42;100.00;101166.91;4965574;28;20097;-73
2024/01/13 06:59:11;;;;;;;1.40;1.40;;;;;;;0.38;100.00;101161.56;4969471;28;20562;-73
2024/01/13 07:01:37;;;;;;;1.63;1.63;;;;;;;0.41;100.00;101159.00;4969427;28;20052;-73
2024/01/13 07:04:02;;;;;;;1.70;1.70;;;;;;;0.29;100.00;101149.09;4969505;28;20035;-73
2024/01/13 07:06:28;;;;;;;1.67;1.67;;;;;;;0.35;100.00;101157.09;4964451;28;20054;-73
2024/01/13 07:08:54;;;;;;;1.90;1.80;;;;;;;0.39;100.00;101155.47;4971021;28;20030;-72
2024/01/13 07:11:19;;;;;;;1.90;1.80;;;;;;;0.34;100.00;101157.06;4971569;28;20443;-72
2024/01/13 07:13:45;;;;;;;1.95;1.85;;;;;;;0.33;100.00;101160.53;4950975;28;20035;-72
2024/01/13 07:16:11;;;;;;;1.70;1.70;;;;;;;0.36;100.00;101161.50;4965364;28;20027;-72
2024/01/13 07:18:37;;;;;;;1.60;1.60;;;;;;;0.39;100.00;101163.31;4962294;28;20031;-73
2024/01/13 07:21:03;;;;;;;1.77;1.75;;;;;;;0.39;100.00;101174.66;4967734;28;20046;-72
2024/01/13 07:23:29;;;;;;;1.70;1.70;;;;;;;0.29;100.00;101156.06;4958595;28;20035;-72
2024/01/13 07:25:55;;;;;;;1.60;1.60;;;;;;;0.34;100.00;101164.91;4957341;28;20027;-70
2024/01/13 07:28:20;;;;;;;1.70;1.70;;;;;;;0.20;100.00;101150.59;4966382;28;20030;-72
2024/01/13 07:30:46;;;;;;;1.77;1.77;;;;;;;0.25;100.00;101160.31;4969394;28;20074;-72
2024/01/13 07:33:12;;;;;;;1.90;1.80;;;;;;;0.20;100.00;101138.38;4963336;28;20506;-72
2024/01/13 07:35:37;;;;;;;1.90;1.80;;;;;;;0.37;100.00;101159.75;4967909;28;20027;-72
2024/01/13 07:38:03;;;;;;;1.80;1.80;;;;;;;0.34;100.00;101159.69;4953582;28;20034;-72
2024/01/13 07:40:28;;;;;;;2.00;1.90;;;;;;;0.19;100.00;101125.25;4968233;28;20704;-72
2024/01/13 07:42:54;;;;;;;1.70;1.70;;;;;;;0.37;100.00;101152.81;4952816;28;20031;-70
2024/01/13 07:45:20;;;;;;;1.63;1.63;;;;;;;0.42;100.00;101155.53;4949725;29;20031;-72
2024/01/13 07:47:46;;;;;;;1.60;1.60;;;;;;;0.45;100.00;101150.38;4981369;28;20109;-72
2024/01/13 07:50:12;;;;;;;1.70;1.70;;;;;;;0.45;100.00;101155.59;4983833;28;20026;-73
2024/01/13 07:52:37;;;;;;;2.00;1.90;;;;;;;0.52;100.00;101147.06;4950457;28;20099;-71
2024/01/13 07:55:03;;;;;;;1.63;1.63;;;;;;;0.46;100.00;101152.16;4949166;29;20027;-72
2024/01/13 07:57:29;;;;;;;1.98;1.88;;;;;;;0.45;100.00;101150.38;4948797;29;20515;-72
2024/01/13 07:59:55;;;;;;;1.70;1.70;;;;;;;0.34;100.00;101142.25;4951104;28;20046;-72
2024/01/13 08:02:21;;;;;;;1.90;1.80;;;;;;;0.38;100.00;101140.63;4965215;28;20034;-73
2024/01/13 08:04:46;;;;;;;1.90;1.80;;;;;;;0.47;100.00;101144.34;4971303;28;20403;-71
2024/01/13 08:07:12;;;;;;;1.70;1.70;;;;;;;-0.04;100.00;101067.13;4962870;28;20037;-73
2024/01/13 08:09:38;;;;;;;1.80;1.80;;;;;;;0.04;100.00;101068.22;4977301;28;20026;-73
2024/01/13 08:12:04;;;;;;;1.70;1.70;;;;;;;0.25;100.00;101089.69;4953859;28;20052;-72
2024/01/13 08:14:29;;;;;;;1.70;1.70;;;;;;;0.49;100.00;101147.91;4971518;28;20554;-73
2024/01/13 08:16:55;;;;;;;1.70;1.70;;;;;;;0.53;100.00;101151.47;4970139;28;20027;-72
2024/01/13 08:19:21;;;;;;;1.70;1.70;;;;;;;0.45;100.00;101146.03;4959824;28;20035;-73
2024/01/13 08:21:46;;;;;;;1.73;1.73;;;;;;;0.38;100.00;101143.22;4961044;28;20026;-72
2024/01/13 08:24:12;;;;;;;1.80;1.80;;;;;;;0.42;100.00;101139.84;4953100;28;20035;-74
2024/01/13 08:26:38;;;;;;;1.83;1.80;;;;;;;0.45;100.00;101148.66;4935296;29;20126;-72
2024/01/13 08:29:03;;;;;;;1.58;1.58;;;;;;;0.52;100.00;101136.59;4951390;29;20035;-73
2024/01/13 08:31:29;;;;;;;1.65;1.65;;;;;;;0.41;100.00;101111.91;4971818;28;20093;-72
2024/01/13 08:33:54;;;;;;;1.60;1.60;;;;;;;0.58;100.00;101153.34;4961827;28;20033;-73
2024/01/13 08:36:20;;;;;;;1.90;1.80;;;;;;;0.52;100.00;101154.94;4952063;29;20105;-73
2024/01/13 08:38:45;;;;;;;1.70;1.70;;;;;;;0.22;100.00;101109.66;4963617;28;20506;-73
2024/01/13 08:41:11;;;;;;;1.75;1.73;;;;;;;0.40;100.00;101151.97;4978429;28;20030;-73
2024/01/13 08:43:37;;;;;;;1.60;1.60;;;;;;;0.50;100.00;101157.50;4961253;28;20027;-73
2024/01/13 08:46:02;;;;;;;1.70;1.70;;;;;;;0.51;100.00;101155.78;4952411;29;20049;-72
2024/01/13 08:48:28;;;;;;;1.67;1.67;;;;;;;0.55;100.00;101165.47;4954699;28;20027;-72
2024/01/13 08:50:53;;;;;;;1.80;1.70;;;;;;;0.26;100.00;101116.75;4942939;28;20018;-73
2024/01/13 08:53:19;;;;;;;1.63;1.63;;;;;;;0.54;100.00;101164.59;4971082;28;20038;-73
2024/01/13 08:55:44;;;;;;;1.73;1.73;;;;;;;0.53;100.00;101170.66;4971457;28;20027;-73
2024/01/13 08:58:10;;;;;;;1.80;1.80;;;;;;;0.58;100.00;101163.81;4970995;28;20422;-74
2024/01/13 09:00:35;;;;;;;1.70;1.70;;;;;;;0.65;100.00;101164.84;4950195;28;20113;-74
2024/01/13 09:03:01;;;;;;;2.00;1.90;;;;;;;0.70;100.00;101168.47;4971232;28;20025;-73
2024/01/13 09:05:27;;;;;;;1.88;1.80;;;;;;;0.50;100.00;101138.28;4971888;28;20027;-73
2024/01/13 09:07:54;;;;;;;1.80;1.80;;;;;;;0.72;100.00;101162.44;4950468;28;20030;-73
2024/01/13 09:10:20;;;;;;;1.50;1.50;;;;;;;0.72;100.00;101166.78;4970825;28;20023;-73
2024/01/13 09:12:45;;;;;;;1.40;1.40;;;;;;;0.74;100.00;101175.56;4958026;28;20086;-74
2024/01/13 09:15:12;;;;;;;1.60;1.60;;;;;;;0.48;100.00;101146.09;4949556;29;20027;-74
2024/01/13 09:17:38;;;;;;;1.60;1.60;;;;;;;0.58;100.00;101181.25;4950062;29;20027;-74
2024/01/13 09:20:04;;;;;;;1.63;1.63;;;;;;;0.66;100.00;101177.97;4956641;28;20062;-74
2024/01/13 09:22:29;;;;;;;1.70;1.70;;;;;;;0.26;100.00;101101.03;4952338;28;20051;-74
2024/01/13 09:24:55;;;;;;;1.90;1.80;;;;;;;0.60;100.00;101169.09;4954582;28;20030;-73
2024/01/13 09:27:20;;;;;;;1.60;1.60;;;;;;;0.64;100.00;101161.38;4967150;28;20038;-73
2024/01/13 09:29:46;;;;;;;1.70;1.70;;;;;;;0.61;100.00;101168.25;4972548;28;20030;-74
2024/01/13 09:32:12;;;;;;;1.63;1.63;;;;;;;0.55;100.00;101174.22;4978243;28;20538;-74
2024/01/13 09:34:38;;;;;;;1.90;1.80;;;;;;;0.47;100.00;101164.38;4970825;28;20538;-73
2024/01/13 09:37:03;;;;;;;1.60;1.60;;;;;;;0.47;100.00;101174.84;4958778;28;20031;-73
2024/01/13 09:39:29;;;;;;;1.58;1.58;;;;;;;0.43;100.00;101168.66;4951246;29;20580;-74
2024/01/13 09:41:55;;;;;;;1.63;1.63;;;;;;;0.41;100.00;101167.75;4952252;29;20368;-73
2024/01/13 09:44:29;;;;;;;1.67;1.67;;;;;;;0.45;100.00;101166.06;4951539;29;20026;-74
2024/01/13 09:46:59;;;;;;;1.70;1.70;;;;;;;0.50;100.00;101165.34;4965051;28;20390;-74
2024/01/13 09:49:30;;;;;;;1.60;1.60;;;;;;;0.55;100.00;101162.84;4970253;28;20031;-73
2024/01/13 09:51:57;;;;;;;1.42;1.42;;;;;;;0.50;100.00;101164.47;4958029;28;20443;-69
2024/01/13 09:54:26;;;;;;;1.55;1.55;;;;;;;0.55;100.00;101162.84;4965085;28;20030;-74
2024/01/13 09:56:53;;;;;;;1.50;1.50;;;;;;;0.48;100.00;101160.94;4933700;29;20062;-75
2024/01/13 09:59:21;;;;;;;1.60;1.60;;;;;;;0.48;100.00;101160.94;4951227;29;20031;-75
2024/01/13 10:01:46;;;;;;;1.70;1.70;;;;;;;0.25;100.00;101130.69;4953039;28;20086;-73
2024/01/13 10:04:12;;;;;;;1.60;1.60;;;;;;;0.41;100.00;101169.47;4935788;28;20023;-75
2024/01/13 10:06:39;;;;;;;1.70;1.70;;;;;;;0.44;100.00;101151.22;4968488;28;20026;-73
2024/01/13 10:09:05;;;;;;;1.70;1.70;;;;;;;0.52;100.00;101178.47;4948888;28;20030;-74
2024/01/13 10:11:31;;;;;;;1.70;1.70;;;;;;;0.35;100.00;101107.38;4932741;29;20522;-74
2024/01/13 10:14:07;;;;;;;1.70;1.70;;;;;;;0.59;100.00;101142.06;4946348;28;20502;-69
2024/01/13 10:16:34;;;;;;;1.60;1.60;;;;;;;0.51;100.00;101140.09;4971676;28;20054;-76
2024/01/13 10:19:05;;;;;;;1.95;1.85;;;;;;;0.40;100.00;101136.28;4957199;28;20038;-74
2024/01/13 10:21:32;;;;;;;1.40;1.40;;;;;;;0.44;100.00;101130.28;4957435;28;20030;-73
2024/01/13 10:23:59;;;;;;;1.65;1.65;;;;;;;0.61;100.00;101129.00;4971089;28;20134;-74
2024/01/13 10:26:25;;;;;;;1.70;1.70;;;;;;;0.60;100.00;101135.06;4953129;28;20054;-73
2024/01/13 10:28:51;;;;;;;1.60;1.60;;;;;;;0.62;100.00;101143.84;4949981;29;20038;-73
2024/01/13 10:31:20;;;;;;;1.60;1.60;;;;;;;0.68;100.00;101143.97;4953782;28;20022;-72
2024/01/13 10:33:49;;;;;;;1.60;1.60;;;;;;;0.64;100.00;101153.53;4969819;28;20414;-75
2024/01/13 10:36:16;;;;;;;1.58;1.58;;;;;;;0.61;100.00;101157.78;4964885;28;20035;-73
2024/01/13 10:38:43;;;;;;;1.70;1.70;;;;;;;0.67;100.00;101161.44;4967767;28;20043;-72
2024/01/13 10:41:12;;;;;;;1.60;1.60;;;;;;;0.61;100.00;101147.31;4951811;28;20039;-74
2024/01/13 10:43:41;;;;;;;1.60;1.60;;;;;;;0.52;100.00;101139.22;4970114;28;20023;-73
2024/01/13 10:46:21;;;;;;;1.60;1.60;;;;;;;0.57;100.00;101137.59;4968959;28;20038;-75
2024/01/13 10:48:50;;;;;;;1.40;1.40;;;;;;;0.50;100.00;101117.34;4969543;28;20035;-73
2024/01/13 10:51:18;;;;;;;1.77;1.77;;;;;;;0.43;100.00;101121.53;4964290;28;20403;-77
2024/01/13 10:53:46;;;;;;;1.60;1.60;;;;;;;0.45;100.00;101112.00;4951096;28;20031;-75
2024/01/13 10:56:14;;;;;;;1.60;1.60;;;;;;;0.36;100.00;101111.78;4950999;28;20031;-75
2024/01/13 10:58:40;;;;;;;1.95;1.85;;;;;;;0.34;100.00;101115.19;4934860;29;20153;-74
2024/01/13 11:01:05;;;;;;;1.60;1.60;;;;;;;-0.01;100.00;101065.47;4956582;28;20494;-76
2024/01/13 11:03:33;;;;;;;1.90;1.80;;;;;;;0.22;100.00;101087.00;4958644;28;20031;-74
2024/01/13 11:06:00;;;;;;;1.70;1.70;;;;;;;0.19;100.00;101078.19;4948154;29;20040;-74
2024/01/13 11:08:26;;;;;;;1.90;1.80;;;;;;;-0.10;100.00;101026.00;4948964;28;20038;-74
2024/01/13 11:10:52;;;;;;;1.65;1.65;;;;;;;0.16;100.00;101078.09;4966307;28;20027;-76
2024/01/13 11:13:28;;;;;;;1.52;1.52;;;;;;;0.07;100.00;101077.88;4966861;28;20402;-74
2024/01/13 11:16:06;;;;;;;1.60;1.60;;;;;;;0.08;100.00;101074.41;4959308;28;20049;-75
2024/01/13 11:18:45;;;;;;;1.90;1.80;;;;;;;0.08;100.00;101061.34;4964364;28;20107;-74